Time;durP1;ratioP1;P1;durP2;ratioP2;P2;SDS_P1;SDS_P2;PMS_P1;PMS_P2;Temp;Humidity;BMP_temperature;BMP_pressure;BME280_temperature;BME280_humidity;BME280_pressure;Samples;Min_cycle;Max_cycle;Signal;HPM_P1;HPM_P2
2020/12/01 00:01:32;;;;;;;2.13;1.40;;;19.00;47.20;;;;;;5016885;28;20472;-53
2020/12/01 00:03:58;;;;;;;1.42;1.33;;;19.00;47.30;;;;;;5016313;28;20345;-51
2020/12/01 00:06:24;;;;;;;2.60;1.58;;;19.00;47.30;;;;;;5016681;28;20026;-53
2020/12/01 00:08:49;;;;;;;2.40;1.23;;;19.00;47.30;;;;;;5017088;28;20395;-53
2020/12/01 00:11:16;;;;;;;2.55;1.70;;;19.00;47.30;;;;;;5016643;28;20030;-52
2020/12/01 00:13:42;;;;;;;1.67;1.10;;;19.00;47.40;;;;;;5016726;28;20022;-52
2020/12/01 00:16:11;;;;;;;1.85;1.52;;;19.00;47.40;;;;;;5016374;28;20030;-52
2020/12/01 00:18:38;;;;;;;3.47;1.50;;;19.00;47.40;;;;;;5021505;28;20340;-51
2020/12/01 00:21:03;;;;;;;1.90;1.33;;;19.00;47.40;;;;;;5016701;28;20041;-52
2020/12/01 00:23:29;;;;;;;1.85;1.33;;;18.90;47.40;;;;;;5016079;28;20036;-45
2020/12/01 00:25:54;;;;;;;1.88;1.73;;;18.90;47.50;;;;;;5016411;28;20033;-51
2020/12/01 00:28:20;;;;;;;1.20;1.10;;;18.90;47.50;;;;;;5016325;28;20056;-48
2020/12/01 00:30:45;;;;;;;5.35;1.52;;;18.90;47.50;;;;;;5016337;28;20068;-47
2020/12/01 00:33:11;;;;;;;2.42;1.35;;;18.90;47.60;;;;;;5016052;28;20072;-47
2020/12/01 00:35:37;;;;;;;1.50;1.40;;;18.90;47.50;;;;;;5016236;28;20110;-48
2020/12/01 00:38:03;;;;;;;1.45;1.35;;;18.90;47.50;;;;;;5016264;28;20511;-45
2020/12/01 00:40:28;;;;;;;3.42;1.77;;;18.90;47.60;;;;;;5016124;28;20037;-46
2020/12/01 00:42:54;;;;;;;1.60;1.50;;;18.90;47.60;;;;;;5016094;28;20087;-48
2020/12/01 00:45:20;;;;;;;1.52;1.30;;;18.80;47.50;;;;;;5016340;28;20049;-46
2020/12/01 00:47:45;;;;;;;1.45;1.08;;;18.90;47.50;;;;;;5015671;28;20456;-46
2020/12/01 00:50:21;;;;;;;3.25;1.50;;;18.80;47.50;;;;;;5016463;28;20026;-47
2020/12/01 00:52:47;;;;;;;1.80;1.30;;;18.80;47.50;;;;;;5015945;28;20105;-46
2020/12/01 00:55:12;;;;;;;1.75;1.40;;;18.80;47.50;;;;;;5014921;28;20114;-45
2020/12/01 00:57:38;;;;;;;1.75;1.38;;;18.80;47.50;;;;;;5016045;28;20109;-45
2020/12/01 01:00:09;;;;;;;1.60;1.30;;;18.80;47.40;;;;;;5015460;28;20029;-47
2020/12/01 01:02:35;;;;;;;1.10;1.00;;;18.80;47.40;;;;;;5015813;28;20030;-48
2020/12/01 01:05:00;;;;;;;1.30;1.20;;;18.70;47.40;;;;;;5015729;28;20022;-46
2020/12/01 01:07:26;;;;;;;1.52;1.10;;;18.70;47.40;;;;;;5015686;28;20099;-47
2020/12/01 01:09:51;;;;;;;1.88;1.20;;;18.70;47.40;;;;;;5015336;28;20021;-46
2020/12/01 01:12:16;;;;;;;2.17;1.30;;;18.70;47.40;;;;;;5016108;28;20032;-45
2020/12/01 01:14:42;;;;;;;2.00;1.20;;;18.70;47.40;;;;;;5015398;28;20026;-46
2020/12/01 01:17:08;;;;;;;1.63;1.10;;;18.70;47.40;;;;;;5014979;28;20432;-45
2020/12/01 01:19:33;;;;;;;1.40;1.30;;;18.70;47.50;;;;;;5015674;28;20018;-46
2020/12/01 01:21:59;;;;;;;1.10;1.00;;;18.60;47.40;;;;;;5015531;28;20127;-46
2020/12/01 01:24:24;;;;;;;1.42;1.20;;;18.60;47.40;;;;;;5015435;28;20568;-48
2020/12/01 01:26:52;;;;;;;2.53;1.10;;;18.60;47.40;;;;;;5015297;28;20049;-46
2020/12/01 01:29:18;;;;;;;1.75;1.35;;;18.60;47.40;;;;;;5015227;28;20032;-47
2020/12/01 01:31:44;;;;;;;2.22;1.40;;;18.70;47.50;;;;;;5015203;28;20026;-46
2020/12/01 01:34:10;;;;;;;1.23;1.10;;;18.60;47.40;;;;;;5015666;28;20028;-45
2020/12/01 01:36:36;;;;;;;1.60;1.25;;;18.60;47.40;;;;;;5015317;28;20022;-46
2020/12/01 01:39:05;;;;;;;1.30;1.20;;;18.60;47.40;;;;;;5015237;28;20037;-45
2020/12/01 01:41:32;;;;;;;2.38;1.10;;;18.60;47.50;;;;;;5015595;28;20029;-45
2020/12/01 01:43:58;;;;;;;1.50;1.33;;;18.60;47.50;;;;;;5015285;28;20064;-46
2020/12/01 01:46:31;;;;;;;1.52;0.93;;;18.60;47.50;;;;;;5014814;28;20054;-46
2020/12/01 01:48:56;;;;;;;1.25;1.02;;;18.60;47.50;;;;;;5015251;28;20065;-45
2020/12/01 01:51:22;;;;;;;0.70;0.70;;;18.60;47.50;;;;;;5015151;28;20106;-45
2020/12/01 01:53:51;;;;;;;0.98;0.90;;;18.50;47.40;;;;;;5015264;28;20108;-48
2020/12/01 01:56:20;;;;;;;1.13;1.02;;;18.50;47.40;;;;;;5014971;28;20034;-46
2020/12/01 01:58:46;;;;;;;1.48;0.93;;;18.50;47.40;;;;;;5014632;28;20030;-45
2020/12/01 02:01:20;;;;;;;1.92;1.20;;;18.50;47.40;;;;;;5015421;28;20061;-46
2020/12/01 02:03:52;;;;;;;1.08;0.98;;;18.50;47.50;;;;;;5014991;28;20088;-46
2020/12/01 02:06:22;;;;;;;0.93;0.82;;;18.50;47.50;;;;;;5015087;28;20096;-48
2020/12/01 02:08:57;;;;;;;1.20;1.02;;;18.50;47.50;;;;;;5015164;28;20030;-46
2020/12/01 02:11:24;;;;;;;1.30;1.08;;;18.50;47.50;;;;;;5014874;28;20939;-47
2020/12/01 02:14:21;;;;;;;2.17;1.10;;;18.40;47.50;;;;;;5014605;28;20026;-46
2020/12/01 02:16:50;;;;;;;1.35;1.10;;;18.50;47.60;;;;;;5014948;28;20080;-47
2020/12/01 02:19:28;;;;;;;1.00;0.90;;;18.50;47.60;;;;;;5015100;28;20034;-47
2020/12/01 02:21:58;;;;;;;1.23;1.13;;;18.40;47.50;;;;;;5015244;28;20041;-45
2020/12/01 02:24:28;;;;;;;0.80;0.77;;;18.40;47.50;;;;;;5014863;28;20061;-47
2020/12/01 02:26:59;;;;;;;0.90;0.65;;;18.40;47.60;;;;;;5015035;28;20038;-47
2020/12/01 02:29:34;;;;;;;1.00;0.90;;;18.40;47.60;;;;;;5015427;28;20449;-45
2020/12/01 02:31:59;;;;;;;3.33;1.33;;;18.40;47.60;;;;;;5018572;28;20064;-46
2020/12/01 02:34:39;;;;;;;0.70;0.70;;;18.40;47.60;;;;;;5018813;28;20024;-45
2020/12/01 02:37:05;;;;;;;1.45;1.05;;;18.40;47.60;;;;;;5018531;28;20033;-45
2020/12/01 02:39:31;;;;;;;1.70;1.20;;;18.40;47.60;;;;;;5018205;28;20424;-46
2020/12/01 02:41:59;;;;;;;1.58;1.00;;;18.40;47.60;;;;;;5018370;28;20080;-46
2020/12/01 02:44:26;;;;;;;1.00;0.90;;;18.40;47.70;;;;;;5018154;28;20036;-46
2020/12/01 02:46:52;;;;;;;1.48;1.05;;;18.40;47.60;;;;;;5018077;28;20061;-45
2020/12/01 02:49:18;;;;;;;0.88;0.68;;;18.30;48.30;;;;;;5018311;28;20042;-45
2020/12/01 02:51:45;;;;;;;1.17;0.73;;;18.30;47.60;;;;;;5018251;28;20033;-48
2020/12/01 02:54:11;;;;;;;0.73;0.65;;;18.30;47.60;;;;;;5018287;28;20160;-48
2020/12/01 02:56:36;;;;;;;1.98;1.02;;;18.30;47.60;;;;;;5018323;28;20109;-46
2020/12/01 02:59:02;;;;;;;0.73;0.73;;;18.30;47.60;;;;;;5018053;28;20033;-46
2020/12/01 03:01:27;;;;;;;0.77;0.75;;;18.30;47.60;;;;;;5017757;28;20364;-46
2020/12/01 03:03:53;;;;;;;0.90;0.70;;;18.30;47.60;;;;;;5018702;28;20026;-47
2020/12/01 03:06:20;;;;;;;0.52;0.52;;;18.30;47.60;;;;;;5017843;28;20030;-49
2020/12/01 03:08:47;;;;;;;2.03;0.73;;;18.30;47.60;;;;;;5018131;28;20049;-46
2020/12/01 03:11:13;;;;;;;1.13;0.80;;;18.30;47.50;;;;;;5017999;28;20112;-50
2020/12/01 03:13:39;;;;;;;1.77;0.70;;;18.40;47.60;;;;;;5017748;28;20061;-48
2020/12/01 03:16:08;;;;;;;1.30;0.90;;;18.40;47.50;;;;;;5017712;28;20059;-47
2020/12/01 03:18:35;;;;;;;0.90;0.65;;;18.40;47.50;;;;;;5017780;28;20028;-46
2020/12/01 03:21:00;;;;;;;0.80;0.70;;;18.40;47.40;;;;;;5017778;28;20392;-47
2020/12/01 03:23:26;;;;;;;1.15;0.70;;;18.40;47.40;;;;;;5017626;28;20052;-47
2020/12/01 03:25:51;;;;;;;0.65;0.57;;;18.40;47.40;;;;;;5017836;28;20555;-46
2020/12/01 03:28:17;;;;;;;0.63;0.47;;;18.40;47.30;;;;;;5017504;28;20037;-50
2020/12/01 03:30:42;;;;;;;1.27;0.77;;;18.40;47.30;;;;;;5017386;28;20092;-47
2020/12/01 03:33:08;;;;;;;1.63;0.95;;;18.40;47.30;;;;;;5017270;28;20330;-46
2020/12/01 03:35:35;;;;;;;1.70;0.80;;;18.40;47.30;;;;;;5017364;28;20026;-45
2020/12/01 03:38:00;;;;;;;1.15;0.70;;;18.40;47.30;;;;;;5017231;28;20033;-47
2020/12/01 03:40:26;;;;;;;1.27;0.70;;;18.50;47.40;;;;;;5016831;28;20026;-50
2020/12/01 03:42:51;;;;;;;0.82;0.57;;;18.40;47.30;;;;;;5017164;28;20030;-48
2020/12/01 03:45:17;;;;;;;0.82;0.60;;;18.40;47.30;;;;;;5017653;28;20025;-46
2020/12/01 03:47:43;;;;;;;0.73;0.40;;;18.40;47.30;;;;;;5016907;28;20061;-46
2020/12/01 03:50:08;;;;;;;0.85;0.70;;;18.40;47.30;;;;;;5017177;28;20088;-47
2020/12/01 03:52:35;;;;;;;1.08;0.70;;;18.50;47.30;;;;;;5016775;28;20033;-48
2020/12/01 03:55:02;;;;;;;0.73;0.60;;;18.40;47.30;;;;;;5017465;28;20029;-47
2020/12/01 03:57:28;;;;;;;1.33;0.90;;;18.40;47.30;;;;;;5017018;28;20030;-46
2020/12/01 03:59:53;;;;;;;1.38;0.80;;;18.40;47.30;;;;;;5016558;28;20026;-46
2020/12/01 04:02:19;;;;;;;1.10;0.63;;;18.50;47.30;;;;;;5016879;28;20026;-47
2020/12/01 04:04:44;;;;;;;1.33;0.70;;;18.40;47.30;;;;;;5016842;28;20033;-46
2020/12/01 04:07:10;;;;;;;0.85;0.45;;;18.40;47.20;;;;;;5016646;28;20045;-47
2020/12/01 04:09:35;;;;;;;1.65;0.68;;;18.40;47.20;;;;;;5016913;28;20461;-49
2020/12/01 04:12:01;;;;;;;0.50;0.50;;;18.40;47.30;;;;;;5016660;28;20025;-48
2020/12/01 04:14:26;;;;;;;1.55;0.80;;;18.40;47.30;;;;;;5016327;28;20352;-48
2020/12/01 04:16:52;;;;;;;0.50;0.50;;;18.40;47.30;;;;;;5016294;28;20084;-46
2020/12/01 04:19:17;;;;;;;0.98;0.70;;;18.40;47.20;;;;;;5016910;28;20030;-47
2020/12/01 04:21:43;;;;;;;1.23;0.70;;;18.40;47.20;;;;;;5016314;28;20026;-47
2020/12/01 04:24:08;;;;;;;1.35;0.60;;;18.40;47.20;;;;;;5016687;28;20033;-47
2020/12/01 04:26:34;;;;;;;0.52;0.43;;;18.40;47.30;;;;;;5016453;28;20026;-46
2020/12/01 04:28:59;;;;;;;1.20;0.60;;;18.40;47.20;;;;;;5015950;28;20033;-49
2020/12/01 04:31:25;;;;;;;1.42;0.63;;;18.40;47.20;;;;;;5016287;28;20026;-47
2020/12/01 04:33:50;;;;;;;0.65;0.50;;;18.40;47.30;;;;;;5016775;28;20038;-47
2020/12/01 04:36:16;;;;;;;0.95;0.52;;;18.40;47.20;;;;;;5016204;28;20468;-47
2020/12/01 04:38:42;;;;;;;1.25;0.88;;;18.40;47.20;;;;;;5016087;28;20037;-47
2020/12/01 04:41:10;;;;;;;0.90;0.50;;;18.40;47.20;;;;;;5016163;28;20029;-46
2020/12/01 04:43:45;;;;;;;1.02;0.70;;;18.40;47.30;;;;;;5016285;28;20030;-46
2020/12/01 04:46:14;;;;;;;1.60;0.85;;;18.40;47.20;;;;;;5016160;28;20022;-49
2020/12/01 04:48:47;;;;;;;1.30;0.80;;;18.40;47.20;;;;;;5016321;28;20575;-47
2020/12/01 04:51:38;;;;;;;1.95;0.80;;;18.40;47.20;;;;;;5015903;28;20037;-47
2020/12/01 04:54:21;;;;;;;0.95;0.50;;;18.40;47.20;;;;;;5015557;28;20121;-49
2020/12/01 04:57:10;;;;;;;0.90;0.60;;;18.40;47.20;;;;;;5015857;28;20037;-48
2020/12/01 04:59:57;;;;;;;1.20;0.60;;;18.40;47.20;;;;;;5016032;28;20113;-46
2020/12/01 05:02:45;;;;;;;0.93;0.52;;;18.40;47.20;;;;;;5015685;28;20507;-46
2020/12/01 05:06:08;;;;;;;0.93;0.47;;;18.40;47.20;;;;;;4978909;28;20069;-48
2020/12/01 05:08:44;;;;;;;0.90;0.50;;;18.40;47.20;;;;;;5014952;28;20038;-47
2020/12/01 05:11:28;;;;;;;;;;;18.30;47.20;;;;;;5015806;28;20444;-46
2020/12/01 05:14:02;;;;;;;2.05;0.70;;;18.40;47.30;;;;;;5015327;28;19915;-47
2020/12/01 05:16:42;;;;;;;1.30;0.50;;;18.30;47.20;;;;;;5015691;28;20415;-46
2020/12/01 05:19:46;;;;;;;0.95;0.70;;;18.30;47.20;;;;;;5015095;28;20441;-46
2020/12/01 05:22:16;;;;;;;0.60;0.38;;;18.30;47.20;;;;;;5015902;28;20018;-47
2020/12/01 05:24:45;;;;;;;0.85;0.50;;;18.30;47.20;;;;;;5015535;28;20095;-47
2020/12/01 05:27:37;;;;;;;0.60;0.40;;;18.40;47.30;;;;;;5015247;28;20029;-46
2020/12/01 05:30:12;;;;;;;0.82;0.50;;;18.40;47.30;;;;;;5011948;28;20041;-46
2020/12/01 05:32:40;;;;;;;0.98;0.60;;;18.40;47.30;;;;;;5014964;28;20338;-49
2020/12/01 05:35:19;;;;;;;0.73;0.50;;;18.40;47.30;;;;;;5015306;28;20053;-48
2020/12/01 05:38:03;;;;;;;0.90;0.50;;;18.40;47.30;;;;;;5014745;28;20030;-45
2020/12/01 05:40:32;;;;;;;0.55;0.50;;;18.40;47.30;;;;;;5015262;28;20034;-48
2020/12/01 05:42:59;;;;;;;1.13;0.50;;;18.30;47.20;;;;;;5015107;28;20456;-48
2020/12/01 05:45:27;;;;;;;1.55;0.55;;;18.40;47.30;;;;;;5015524;28;20441;-47
2020/12/01 05:48:21;;;;;;;1.10;0.52;;;18.40;47.30;;;;;;5017082;28;20465;-48
2020/12/01 05:50:48;;;;;;;;;;;18.40;47.90;;;;;;5011726;28;20508;-47
2020/12/01 05:53:18;;;;;;;1.65;0.47;;;18.30;47.20;;;;;;5015089;28;19906;-47
2020/12/01 05:55:56;;;;;;;0.70;0.40;;;18.40;47.30;;;;;;5015048;28;20026;-47
2020/12/01 05:58:22;;;;;;;0.40;0.40;;;18.40;47.30;;;;;;5015259;28;20036;-46
2020/12/01 06:00:58;;;;;;;0.73;0.60;;;18.40;47.30;;;;;;5015421;28;20030;-46
2020/12/01 06:03:42;;;;;;;1.67;0.75;;;18.30;47.20;;;;;;5015958;28;20037;-49
2020/12/01 06:06:11;;;;;;;0.73;0.57;;;18.40;47.20;;;;;;5019298;28;20076;-47
2020/12/01 06:08:55;;;;;;;0.73;0.45;;;18.40;47.20;;;;;;5018889;28;20104;-46
2020/12/01 06:11:41;;;;;;;0.90;0.63;;;18.40;47.20;;;;;;5018947;28;20026;-49
2020/12/01 06:14:33;;;;;;;0.65;0.38;;;18.40;47.20;;;;;;5018951;28;20026;-46
2020/12/01 06:17:06;;;;;;;0.98;0.50;;;18.40;47.20;;;;;;5019117;28;20061;-49
2020/12/01 06:19:38;;;;;;;2.85;0.75;;;18.40;47.20;;;;;;5018909;28;20037;-46
2020/12/01 06:22:10;;;;;;;1.33;0.52;;;18.40;47.80;;;;;;5018860;28;20076;-46
2020/12/01 06:24:49;;;;;;;1.52;0.65;;;18.40;47.20;;;;;;5018988;28;20367;-45
2020/12/01 06:27:52;;;;;;;0.47;0.30;;;18.40;47.20;;;;;;5018631;28;20114;-47
2020/12/01 06:30:29;;;;;;;0.80;0.47;;;18.40;47.20;;;;;;5018654;28;20084;-45
2020/12/01 06:33:22;;;;;;;1.42;0.70;;;18.40;47.20;;;;;;5018236;28;20026;-48
2020/12/01 06:36:42;;;;;;;1.45;0.52;;;18.40;47.20;;;;;;5018624;28;20033;-46
2020/12/01 06:39:27;;;;;;;0.95;0.57;;;18.40;47.10;;;;;;5018471;28;20032;-47
2020/12/01 06:42:21;;;;;;;0.30;0.30;;;18.40;47.20;;;;;;5018449;28;20022;-51
2020/12/01 06:44:53;;;;;;;1.35;0.40;;;18.40;47.20;;;;;;5018361;28;20032;-48
2020/12/01 06:47:24;;;;;;;2.50;0.85;;;18.40;47.20;;;;;;5018480;28;20132;-47
2020/12/01 06:49:55;;;;;;;1.70;0.80;;;18.40;47.40;;;;;;5018879;28;20030;-50
2020/12/01 06:52:20;;;;;;;5.22;0.80;;;18.40;47.70;;;;;;5018263;28;20185;-48
2020/12/01 06:54:49;;;;;;;1.98;0.60;;;18.40;47.80;;;;;;5017636;28;20415;-47
2020/12/01 06:57:23;;;;;;;2.38;0.70;;;18.40;47.80;;;;;;5018013;28;20097;-47
2020/12/01 06:59:49;;;;;;;1.55;0.60;;;18.40;48.00;;;;;;5017818;28;20483;-48
2020/12/01 07:02:28;;;;;;;4.07;0.90;;;18.40;48.10;;;;;;5017685;28;20030;-47
2020/12/01 07:05:25;;;;;;;4.68;0.70;;;18.50;48.10;;;;;;5018208;28;20124;-52
2020/12/01 07:07:51;;;;;;;4.13;0.90;;;18.50;48.20;;;;;;5017854;28;20033;-46
2020/12/01 07:10:32;;;;;;;2.33;0.82;;;18.50;48.20;;;;;;5018293;28;20034;-47
2020/12/01 07:13:16;;;;;;;7.20;1.00;;;18.50;48.10;;;;;;5017916;28;20033;-46
2020/12/01 07:15:48;;;;;;;2.17;0.60;;;18.60;48.10;;;;;;5016903;28;20036;-47
2020/12/01 07:18:29;;;;;;;2.35;0.63;;;18.60;48.00;;;;;;5017512;28;20107;-46
2020/12/01 07:21:14;;;;;;;2.15;0.60;;;18.70;48.00;;;;;;5017857;28;20097;-51
2020/12/01 07:24:07;;;;;;;5.97;0.65;;;18.80;48.00;;;;;;5017617;28;20080;-45
2020/12/01 07:26:44;;;;;;;4.72;0.88;;;18.80;48.10;;;;;;5017353;28;20105;-49
2020/12/01 07:29:27;;;;;;;2.78;0.63;;;18.90;48.10;;;;;;5017547;28;20038;-49
2020/12/01 07:32:04;;;;;;;13.77;1.33;;;18.90;48.00;;;;;;5017622;28;20034;-46
2020/12/01 07:34:33;;;;;;;3.17;0.80;;;18.90;48.00;;;;;;5017127;28;20022;-46
2020/12/01 07:37:17;;;;;;;4.22;0.95;;;18.90;48.10;;;;;;5016432;28;20088;-47
2020/12/01 07:39:55;;;;;;;2.60;0.50;;;19.00;48.10;;;;;;5017247;28;20028;-46
2020/12/01 07:42:24;;;;;;;5.05;0.70;;;19.00;48.10;;;;;;5017213;28;20033;-47
2020/12/01 07:44:49;;;;;;;4.45;1.30;;;19.00;48.10;;;;;;5017299;28;20080;-46
2020/12/01 07:47:22;;;;;;;1.88;0.60;;;19.00;48.10;;;;;;5017049;28;20396;-47
2020/12/01 07:50:04;;;;;;;2.22;0.88;;;19.10;48.20;;;;;;5016740;28;20330;-47
2020/12/01 07:52:40;;;;;;;4.20;0.80;;;19.10;48.20;;;;;;5017093;28;20096;-46
2020/12/01 07:55:18;;;;;;;6.53;0.80;;;19.10;48.20;;;;;;5017168;28;20060;-48
2020/12/01 07:57:43;;;;;;;3.88;0.68;;;19.10;48.30;;;;;;5017209;28;20041;-47
2020/12/01 08:00:17;;;;;;;3.28;0.88;;;19.10;48.20;;;;;;5017043;28;20022;-46
2020/12/01 08:02:42;;;;;;;;;;;19.20;48.30;;;;;;5017682;28;20433;-46
2020/12/01 08:05:12;;;;;;;1.55;0.60;;;19.20;48.30;;;;;;5016868;28;19917;-51
2020/12/01 08:07:37;;;;;;;2.53;0.73;;;19.10;48.30;;;;;;5016350;28;20364;-46
2020/12/01 08:10:12;;;;;;;2.78;1.08;;;19.10;48.30;;;;;;5016807;28;20026;-47
2020/12/01 08:12:42;;;;;;;2.17;0.52;;;19.20;48.40;;;;;;5016580;28;20030;-46
2020/12/01 08:15:21;;;;;;;6.18;0.60;;;19.20;48.40;;;;;;5016672;28;20037;-44
2020/12/01 08:17:48;;;;;;;2.17;0.35;;;19.20;48.40;;;;;;5016511;28;20045;-51
2020/12/01 08:20:18;;;;;;;0.82;0.35;;;19.20;48.40;;;;;;5016490;28;20448;-47
2020/12/01 08:22:59;;;;;;;1.30;0.50;;;19.20;48.70;;;;;;5016522;28;20022;-48
2020/12/01 08:25:28;;;;;;;2.95;0.65;;;19.20;48.90;;;;;;5016673;28;20022;-46
2020/12/01 08:28:16;;;;;;;3.00;0.60;;;19.20;48.90;;;;;;5016244;28;20026;-47
2020/12/01 08:30:51;;;;;;;5.05;0.70;;;19.30;49.00;;;;;;5015938;28;20044;-48
2020/12/01 08:33:43;;;;;;;4.35;0.80;;;19.20;49.10;;;;;;5016156;28;20029;-49
2020/12/01 08:36:28;;;;;;;1.65;0.68;;;19.20;49.50;;;;;;5016388;28;20440;-46
2020/12/01 08:39:02;;;;;;;2.28;0.52;;;19.20;49.40;;;;;;5016290;28;20105;-50
2020/12/01 08:41:54;;;;;;;6.20;0.93;;;19.20;49.50;;;;;;5015754;28;20457;-46
2020/12/01 08:44:32;;;;;;;3.50;0.73;;;19.20;49.40;;;;;;5016063;28;20021;-48
2020/12/01 08:46:58;;;;;;;4.90;0.80;;;19.30;49.50;;;;;;5018030;28;20396;-46
2020/12/01 08:49:24;;;;;;;2.20;0.70;;;19.20;49.60;;;;;;5015940;28;20025;-46
2020/12/01 08:51:59;;;;;;;6.15;0.82;;;19.20;50.20;;;;;;5015297;28;20041;-48
2020/12/01 08:54:35;;;;;;;3.28;1.10;;;19.30;49.60;;;;;;5014822;28;20057;-46
2020/12/01 08:57:04;;;;;;;3.47;1.20;;;19.30;49.60;;;;;;5015705;28;20030;-50
2020/12/01 08:59:47;;;;;;;2.90;0.85;;;19.30;49.70;;;;;;5015487;28;20033;-48
2020/12/01 09:02:15;;;;;;;2.97;0.50;;;19.30;49.80;;;;;;5015811;28;20185;-49
2020/12/01 09:04:40;;;;;;;2.55;0.93;;;19.30;49.80;;;;;;5015732;28;20026;-47
2020/12/01 09:07:18;;;;;;;6.15;0.80;;;19.30;49.80;;;;;;5015727;28;20017;-48
2020/12/01 09:09:46;;;;;;;3.75;0.77;;;19.30;49.90;;;;;;5015553;28;20404;-51
2020/12/01 09:12:23;;;;;;;5.55;1.15;;;19.30;49.90;;;;;;5015402;28;20127;-48
2020/12/01 09:15:15;;;;;;;1.38;0.47;;;19.30;49.90;;;;;;5015634;28;20457;-48
2020/12/01 09:21:03;;;;;;;4.38;0.77;;;19.40;49.90;;;;;;5014976;28;20045;-46
2020/12/01 09:23:35;;;;;;;5.30;0.75;;;19.30;50.10;;;;;;5015419;28;20026;-49
2020/12/01 09:26:03;;;;;;;2.53;0.80;;;19.40;50.10;;;;;;5015339;28;20026;-48
2020/12/01 09:28:30;;;;;;;3.95;0.90;;;19.40;50.10;;;;;;5015315;28;20038;-48
2020/12/01 09:31:03;;;;;;;2.13;0.55;;;19.40;50.10;;;;;;5015500;28;20037;-48
2020/12/01 09:33:28;;;;;;;3.63;0.82;;;19.40;50.20;;;;;;5015449;28;20302;-47
2020/12/01 09:35:54;;;;;;;5.38;1.52;;;19.40;50.20;;;;;;5015052;28;20091;-47
2020/12/01 09:38:20;;;;;;;4.30;1.60;;;19.40;50.30;;;;;;5014746;28;20042;-50
2020/12/01 09:40:49;;;;;;;3.85;2.10;;;19.40;50.30;;;;;;5015627;28;20071;-52
2020/12/01 09:45:42;;;;;;;5.18;1.92;;;19.40;50.50;;;;;;5015573;28;20038;-50
2020/12/01 09:48:31;;;;;;;6.72;2.10;;;19.50;50.60;;;;;;5015168;28;20053;-53
2020/12/01 09:50:56;;;;;;;4.50;1.83;;;19.40;50.50;;;;;;5014006;28;20054;-48
2020/12/01 09:53:29;;;;;;;5.88;1.60;;;19.40;50.60;;;;;;5014840;28;20045;-51
2020/12/01 09:56:04;;;;;;;8.52;2.53;;;19.40;50.60;;;;;;5015537;28;20306;-53
2020/12/01 10:04:46;;;;;;;8.85;2.13;;;19.40;50.80;;;;;;5015384;28;20046;-46
2020/12/01 10:09:24;;;;;;;3.70;1.50;;;19.40;50.70;;;;;;5014656;28;20061;-51
2020/12/01 10:20:28;;;;;;;8.90;2.17;;;19.30;50.30;;;;;;5014425;28;20049;-48
2020/12/01 10:23:50;;;;;;;7.50;1.88;;;19.30;50.30;;;;;;5014510;28;20334;-51
2020/12/01 10:25:56;;;;;;;11.57;2.08;;;19.30;50.40;;;;;;5014023;28;20034;-51
2020/12/01 10:29:47;;;;;;;6.78;2.08;;;19.30;50.50;;;;;;5014178;28;20056;-48
2020/12/01 10:31:58;;;;;;;8.00;1.80;;;19.40;50.60;;;;;;5014239;28;20456;-48
2020/12/01 10:35:19;;;;;;;7.28;1.70;;;19.40;50.60;;;;;;5014431;28;20022;-48
2020/12/01 10:37:10;;;;;;;5.68;1.88;;;19.40;50.80;;;;;;5001149;28;20066;-46
2020/12/01 10:39:35;;;;;;;9.63;1.92;;;19.40;51.20;;;;;;5014679;28;20030;-49
2020/12/01 10:42:12;;;;;;;7.88;2.13;;;19.40;51.20;;;;;;5014778;28;20053;-46
2020/12/01 10:44:38;;;;;;;9.35;2.05;;;19.40;51.30;;;;;;5014476;28;20030;-48
2020/12/01 10:47:04;;;;;;;5.32;1.85;;;19.40;51.30;;;;;;5014180;28;20029;-49
2020/12/01 10:49:30;;;;;;;6.72;1.65;;;19.40;51.20;;;;;;5014532;28;20018;-46
2020/12/01 10:51:56;;;;;;;16.13;3.10;;;19.40;50.90;;;;;;5017778;28;20475;-54
2020/12/01 10:54:21;;;;;;;7.78;1.92;;;19.40;50.40;;;;;;5018211;28;20468;-47
2020/12/01 10:56:48;;;;;;;4.82;1.77;;;19.40;50.00;;;;;;5018006;28;20365;-50
2020/12/01 10:59:14;;;;;;;7.93;2.50;;;19.40;49.90;;;;;;5018200;28;20026;-51
2020/12/01 11:01:40;;;;;;;8.32;2.33;;;19.40;49.80;;;;;;5017854;28;20026;-52
2020/12/01 11:04:05;;;;;;;9.15;2.63;;;19.40;49.80;;;;;;5018195;28;20026;-53
2020/12/01 11:06:31;;;;;;;8.48;2.00;;;19.40;49.70;;;;;;5017969;28;20030;-52
2020/12/01 11:08:57;;;;;;;10.48;2.47;;;19.40;49.90;;;;;;5017467;28;20400;-52
2020/12/01 11:11:22;;;;;;;13.00;2.20;;;19.50;50.00;;;;;;5018264;28;20022;-51
2020/12/01 11:13:48;;;;;;;12.93;2.10;;;19.50;50.00;;;;;;5018009;28;20049;-47
2020/12/01 11:16:13;;;;;;;6.63;1.70;;;19.50;50.10;;;;;;5017987;28;20496;-47
2020/12/01 11:18:40;;;;;;;6.63;2.00;;;19.50;50.10;;;;;;5017709;28;20029;-46
2020/12/01 11:21:05;;;;;;;5.00;1.88;;;19.60;50.10;;;;;;5017840;28;20097;-54
2020/12/01 11:23:31;;;;;;;4.38;1.67;;;19.70;50.10;;;;;;5017657;28;20117;-53
2020/12/01 11:25:56;;;;;;;6.50;1.60;;;19.70;50.00;;;;;;5020301;28;20034;-47
2020/12/01 11:28:22;;;;;;;4.55;1.80;;;19.70;50.70;;;;;;5017486;28;20053;-47
2020/12/01 11:30:47;;;;;;;7.15;1.90;;;19.80;50.10;;;;;;5017308;28;20026;-48
2020/12/01 11:33:13;;;;;;;5.25;1.70;;;19.80;50.10;;;;;;5017287;28;20025;-46
2020/12/01 11:35:38;;;;;;;8.02;2.00;;;19.90;50.10;;;;;;5017804;28;20022;-52
2020/12/01 11:38:04;;;;;;;4.82;1.45;;;20.00;50.10;;;;;;5017795;28;20026;-49
2020/12/01 11:40:29;;;;;;;8.25;2.38;;;20.00;50.10;;;;;;5016255;28;20029;-47
2020/12/01 11:42:55;;;;;;;6.00;1.52;;;20.10;50.00;;;;;;5017295;28;20029;-53
2020/12/01 11:45:21;;;;;;;5.80;1.60;;;20.10;50.00;;;;;;5016985;28;20026;-52
2020/12/01 11:47:46;;;;;;;3.33;1.70;;;20.10;49.90;;;;;;5016691;28;20076;-53
2020/12/01 11:50:12;;;;;;;5.28;1.48;;;20.10;50.00;;;;;;5017166;28;20030;-49
2020/12/01 11:52:38;;;;;;;2.05;1.20;;;20.20;50.00;;;;;;5016811;28;20109;-50
2020/12/01 11:55:06;;;;;;;3.30;1.27;;;20.20;49.90;;;;;;5016620;28;20330;-52
2020/12/01 11:57:32;;;;;;;5.28;1.65;;;20.30;50.00;;;;;;5016994;28;20056;-48
2020/12/01 11:59:57;;;;;;;5.43;1.38;;;20.30;49.90;;;;;;5016318;28;20033;-52
2020/12/01 12:02:23;;;;;;;4.03;1.48;;;20.30;49.90;;;;;;5016280;28;20084;-52
2020/12/01 12:04:48;;;;;;;4.32;1.60;;;20.30;49.90;;;;;;5016568;28;20022;-50
2020/12/01 12:07:14;;;;;;;2.72;1.23;;;20.30;49.90;;;;;;5016634;28;20026;-48
2020/12/01 12:09:40;;;;;;;4.68;1.33;;;20.30;49.90;;;;;;5016652;28;20088;-48
2020/12/01 12:12:05;;;;;;;5.63;2.08;;;20.30;49.90;;;;;;5016828;28;20030;-50
2020/12/01 12:14:31;;;;;;;4.57;1.13;;;20.30;49.80;;;;;;5016172;28;20026;-46
2020/12/01 12:16:56;;;;;;;4.20;1.50;;;20.40;49.90;;;;;;5016237;28;20030;-48
2020/12/01 12:19:22;;;;;;;5.28;1.20;;;20.40;49.80;;;;;;5016644;28;20033;-46
2020/12/01 12:21:47;;;;;;;2.65;1.23;;;20.40;49.70;;;;;;5016567;28;20069;-49
2020/12/01 12:24:13;;;;;;;3.22;1.63;;;20.50;49.70;;;;;;5016796;28;20038;-52
2020/12/01 12:26:38;;;;;;;5.90;1.40;;;20.50;49.60;;;;;;5016169;28;20030;-51
2020/12/01 12:29:04;;;;;;;6.43;1.40;;;20.50;49.60;;;;;;5016407;28;20038;-48
2020/12/01 12:31:30;;;;;;;2.13;1.15;;;20.50;49.50;;;;;;5015612;28;20360;-47
2020/12/01 12:33:55;;;;;;;5.63;1.60;;;20.60;49.40;;;;;;5016286;28;20037;-46
2020/12/01 12:36:21;;;;;;;4.70;1.50;;;20.60;49.30;;;;;;5016196;28;20037;-47
2020/12/01 12:38:46;;;;;;;6.22;2.30;;;20.60;49.20;;;;;;5016227;28;20033;-50
2020/12/01 12:41:12;;;;;;;5.13;1.85;;;20.60;49.20;;;;;;5016105;28;20173;-50
2020/12/01 12:43:38;;;;;;;9.27;2.95;;;20.70;49.30;;;;;;5016075;28;20117;-49
2020/12/01 12:46:03;;;;;;;3.78;1.50;;;20.70;49.10;;;;;;5016047;28;20028;-46
2020/12/01 12:48:29;;;;;;;4.18;1.95;;;20.60;48.60;;;;;;5015823;28;20107;-49
2020/12/01 12:50:55;;;;;;;4.72;1.83;;;20.60;48.70;;;;;;5033841;28;20029;-48
2020/12/01 12:53:21;;;;;;;6.32;2.17;;;20.40;48.70;;;;;;5035867;28;20026;-51
2020/12/01 12:55:47;;;;;;;7.25;2.40;;;20.30;48.80;;;;;;5035238;28;20036;-52
2020/12/01 12:58:12;;;;;;;9.82;3.10;;;20.20;49.20;;;;;;5035766;28;20033;-50
2020/12/01 13:00:38;;;;;;;10.43;2.55;;;20.20;49.70;;;;;;5035569;28;20033;-51
2020/12/01 13:03:03;;;;;;;7.60;2.42;;;20.20;49.80;;;;;;5035360;28;20040;-52
2020/12/01 13:05:29;;;;;;;7.57;2.45;;;20.20;49.80;;;;;;5035268;28;20037;-48
2020/12/01 13:07:56;;;;;;;5.05;2.08;;;20.20;49.80;;;;;;5035578;28;20044;-46
2020/12/01 13:10:21;;;;;;;4.70;2.28;;;20.30;49.70;;;;;;5034951;28;20431;-53
2020/12/01 13:12:47;;;;;;;6.85;2.08;;;20.30;49.70;;;;;;5034618;28;20037;-53
2020/12/01 13:15:13;;;;;;;4.45;1.80;;;20.40;49.60;;;;;;5034479;28;20047;-50
2020/12/01 13:17:40;;;;;;;7.75;2.42;;;20.40;49.50;;;;;;5035434;28;20418;-47
2020/12/01 13:20:11;;;;;;;6.68;2.25;;;20.50;49.40;;;;;;5035721;28;20100;-53
2020/12/01 13:22:37;;;;;;;5.30;2.00;;;20.50;49.30;;;;;;5034423;28;20076;-47
2020/12/01 13:25:02;;;;;;;4.40;2.33;;;20.50;49.30;;;;;;5035108;28;20468;-45
2020/12/01 13:27:28;;;;;;;6.30;2.90;;;20.50;49.40;;;;;;5034758;28;20043;-54
2020/12/01 13:29:53;;;;;;;5.03;1.98;;;20.60;49.30;;;;;;5034503;28;20112;-51